Linton, Kentucky
Current Conditions -  °F | °C
As of 1:58 PM on Monday 24 Nov 2014 (Local Time) from KHOP Reporting Station
Few Clouds Few Clouds  
Wind Chill: 55°   Ceiling: Unl
Heat Index: 55°   Visibility: 8mi
Dew Point: 35°   Wind: 22mph
Humidity: 47%   Direction: 230°SW
Pressure: 29.79"   Gusts: NA
Location:  36.8031°N, 87.8159°W
Report Text: KHOP 241958Z AUTO 23019KT 8SM FEW045 13/02 A2979 RMK AO2 PK WND 23026/16 SLP088 T01250015
Loading
Personal Weather Stations






























Interactive Weather Map New forecast layout! Learn more

10-Day Weather Forecast

Advertisements
Track Severe Weather on mobile